Flight Track Log - Related Links

Times and Time Zones

All times are in EDT time to prevent confusion due to time zone crossing. See the SWA727 flight status page for this flight to view local times or setup timezone preferences in your user account.

Time Position Orientation Groundspeed Altitude Reporting Facility
EDT Latitude Longitude Course Direction KTS MPH feet Rate Location/Type
Tue 07:24:27 AM 28.0000 -82.5333 360° North 167 192 700  Level Tampa TRACON
Tue 07:25:15 AM 28.0333 -82.5333 360° North 190 219 2,200 2,406 Climbing Tampa TRACON
Tue 07:27:44 AM 28.2017 -82.6006 341° North 263 303 8,600 2,411 Climbing Jacksonville Center
Tue 07:28:44 AM 28.2728 -82.6403 334° Northwest 281 323 10,600 1,650 Climbing Jacksonville Center
Tue 07:29:44 AM 28.3564 -82.6897 333° Northwest 305 351 11,900 1,850 Climbing Jacksonville Center
Tue 07:30:44 AM 28.4483 -82.7439 333° Northwest 339 390 14,300 2,500 Climbing Jacksonville Center
Tue 07:31:44 AM 28.5422 -82.7981 333° Northwest 358 412 16,900 2,350 Climbing Jacksonville Center
Tue 07:32:44 AM 28.6342 -82.8569 331° Northwest 372 428 19,000 1,950 Climbing Jacksonville Center
Tue 07:33:44 AM 28.7281 -82.9186 330° Northwest 377 434 20,800 1,650 Climbing Jacksonville Center
Tue 07:34:44 AM 28.8219 -82.9872 327° Northwest 390 449 22,300 1,650 Climbing Jacksonville Center
Tue 07:35:44 AM 28.9219 -83.0564 329° Northwest 400 460 24,100 1,650 Climbing Jacksonville Center
Tue 07:36:44 AM 29.0200 -83.1278 328° Northwest 406 467 25,600 1,300 Climbing Jacksonville Center
Tue 07:37:44 AM 29.1222 -83.1969 329° Northwest 418 481 26,700 1,050 Climbing Jacksonville Center
Tue 07:38:44 AM 29.2075 -83.2947 315° West 429 494 27,700 1,200 Climbing Jacksonville Center
Tue 07:39:44 AM 29.2739 -83.4092 304° West 424 488 29,100 1,450 Climbing Jacksonville Center
Tue 07:40:44 AM 29.3422 -83.5239 304° West 430 495 30,600 1,600 Climbing Jacksonville Center
Tue 07:41:44 AM 29.4042 -83.6339 303° West 430 495 32,300 1,450 Climbing Jacksonville Center
Tue 07:42:44 AM 29.4661 -83.7417 303° West 419 482 33,500 850 Climbing Jacksonville Center
Tue 07:43:44 AM 29.5281 -83.8472 304° West 413 475 34,000 250 Climbing Jacksonville Center
Tue 07:44:44 AM 29.5897 -83.9531 304° West 408 470 34,000  Level Jacksonville Center
Tue 07:45:44 AM 29.6536 -84.0611 304° West 408 470 34,000  Level Jacksonville Center
Tue 07:46:44 AM 29.7153 -84.1694 303° West 408 470 34,000  Level Jacksonville Center
Tue 07:47:44 AM 29.7767 -84.2756 304° West 408 470 34,000  Level Jacksonville Center
Tue 07:48:44 AM 29.8381 -84.3844 303° West 408 470 34,000  Level Jacksonville Center
Tue 07:49:44 AM 29.8994 -84.4931 303° West 408 470 34,000  Level Jacksonville Center
Tue 07:50:44 AM 29.9606 -84.6019 303° West 408 470 34,000  Level Jacksonville Center
Tue 07:51:44 AM 30.0239 -84.7086 304° West 408 470 34,000  Level Jacksonville Center
Tue 07:52:44 AM 30.0850 -84.8153 304° West 408 470 34,000  Level Jacksonville Center
Tue 07:53:44 AM 30.1458 -84.9269 302° West 408 470 34,000  Level Jacksonville Center
Tue 07:54:45 AM 30.2047 -85.0342 302° West 408 470 34,000  Level Jacksonville Center
Tue 07:55:44 AM 30.2656 -85.1436 303° West 408 470 34,000  Level Jacksonville Center
Tue 07:56:44 AM 30.3222 -85.2411 304° West 408 470 34,000  Level Jacksonville Center
Tue 07:57:44 AM 30.3828 -85.3486 303° West 408 470 34,000  Level Jacksonville Center
Tue 07:58:44 AM 30.4453 -85.4611 303° West 408 470 34,000  Level Jacksonville Center
Tue 07:59:44 AM 30.5056 -85.5689 303° West 408 470 34,000  Level Jacksonville Center
Tue 08:00:44 AM 30.5658 -85.6839 301° West 413 475 34,000  Level Jacksonville Center
Tue 08:01:44 AM 30.6281 -85.7942 303° West 413 475 34,000  Level Jacksonville Center
Tue 08:02:44 AM 30.6881 -85.9025 303° West 413 475 34,000  Level Jacksonville Center
Tue 08:03:44 AM 30.7481 -86.0131 302° West 408 470 34,000  Level Jacksonville Center
Tue 08:04:45 AM 30.8058 -86.1239 301° West 408 470 34,000  Level Jacksonville Center
Tue 08:05:44 AM 30.8594 -86.2394 298° West 408 470 34,000  Level Jacksonville Center
Tue 08:06:45 AM 30.9106 -86.3575 297° West 408 470 34,000  Level Jacksonville Center
Tue 08:07:44 AM 30.9614 -86.4756 297° West 408 470 34,000  Level Jacksonville Center
Tue 08:08:44 AM 31.0122 -86.5936 297° West 413 475 34,000  Level Jacksonville Center
Tue 08:09:44 AM 31.0608 -86.7169 295° West 413 475 34,000  Level Jacksonville Center
Tue 08:10:44 AM 31.1114 -86.8403 296° West 413 475 34,000  Level Jacksonville Center
Tue 08:12:23 AM 31.1994 -87.0375 298° West 412 474 34,000  Level Memphis Center
Tue 08:12:53 AM 31.2269 -87.0911 301° West 399 459 34,000  Level Atlanta Center
Tue 08:13:53 AM 31.2739 -87.2092 295° West 406 467 34,000  Level Atlanta Center
Tue 08:14:53 AM 31.3231 -87.3300 295° West 411 473 34,000  Level Atlanta Center
Tue 08:15:53 AM 31.3742 -87.4486 297° West 411 473 34,000  Level Atlanta Center
Tue 08:16:53 AM 31.4228 -87.5672 296° West 411 473 34,000  Level Atlanta Center
Tue 08:17:53 AM 31.4736 -87.6886 296° West 411 473 34,000  Level Atlanta Center
Tue 08:18:53 AM 31.5222 -87.8097 295° West 411 473 34,000 37 Level Atlanta Center
Tue 08:20:36 AM 31.6061 -88.0156 296° West 410 472 34,100 400 Climbing Memphis Center
Tue 08:21:38 AM 31.6556 -88.1350 296° West 411 473 35,100 774 Climbing Memphis Center
Tue 08:22:40 AM 31.7042 -88.2558 295° West 411 473 35,700 439 Climbing Memphis Center
Tue 08:23:41 AM 31.7639 -88.4017 296° West 412 474 36,000 146 Climbing Memphis Center
Tue 08:24:43 AM 31.8133 -88.5244 295° West 413 475 36,000  Level Memphis Center
Tue 08:25:45 AM 31.8622 -88.6464 295° West 414 476 36,000  Level Memphis Center
Tue 08:26:46 AM 31.9111 -88.7686 295° West 414 476 36,000  Level Memphis Center
Tue 08:27:48 AM 31.9631 -88.8994 295° West 412 474 36,000  Level Memphis Center
Tue 08:28:50 AM 32.0111 -89.0192 295° West 411 473 36,000  Level Memphis Center
Tue 08:29:52 AM 32.0581 -89.1386 295° West 409 471 36,000  Level Memphis Center
Tue 08:30:53 AM 32.1056 -89.2592 295° West 409 471 36,000  Level Memphis Center
Tue 08:31:55 AM 32.1525 -89.3783 295° West 407 468 36,000  Level Memphis Center
Tue 08:32:57 AM 32.2094 -89.5208 295° West 406 467 36,000  Level Memphis Center
Tue 08:33:58 AM 32.2569 -89.6408 295° West 406 467 36,000  Level Memphis Center
Tue 08:35:00 AM 32.3025 -89.7617 294° West 405 466 36,000  Level Memphis Center
Tue 08:36:02 AM 32.3497 -89.8806 295° West 405 466 36,000  Level Memphis Center
Tue 08:37:04 AM 32.3969 -90.0025 295° West 405 466 36,000  Level Memphis Center
Tue 08:38:05 AM 32.4431 -90.1244 294° West 405 466 36,000  Level Memphis Center
Tue 08:39:07 AM 32.4822 -90.2511 290° West 406 467 36,000  Level Memphis Center
Tue 08:40:09 AM 32.5314 -90.4000 291° West 406 467 36,000  Level Memphis Center
Tue 08:41:11 AM 32.5711 -90.5239 291° West 406 467 36,000  Level Memphis Center
Tue 08:42:12 AM 32.6103 -90.6494 290° West 406 467 36,000  Level Memphis Center
Tue 08:43:14 AM 32.6506 -90.7744 291° West 406 467 36,000  Level Memphis Center
Tue 08:44:16 AM 32.6894 -90.8969 291° West 405 466 36,000  Level Memphis Center
Tue 08:45:18 AM 32.7281 -91.0206 290° West 404 465 36,000  Level Memphis Center
Tue 08:46:20 AM 32.7758 -91.1697 291° West 403 464 36,000  Level Memphis Center
Tue 08:47:22 AM 32.8128 -91.2950 289° West 403 464 36,000  Level Memphis Center
Tue 08:48:24 AM 32.8525 -91.4189 291° West 403 464 36,000  Level Memphis Center
Tue 08:49:26 AM 32.8908 -91.5436 290° West 403 464 36,000  Level Memphis Center
Tue 08:50:28 AM 32.9294 -91.6697 290° West 404 465 36,000  Level Memphis Center
Tue 08:51:30 AM 32.9689 -91.7950 291° West 404 465 36,000  Level Memphis Center
Tue 08:52:14 AM 33.0019 -91.8994 291° West 409 471 36,000  Level Fort Center
Tue 08:53:16 AM 33.0414 -92.0261 290° West 408 470 36,000  Level Fort Center
Tue 08:54:18 AM 33.0786 -92.1511 290° West 405 466 36,000  Level Fort Center
Tue 08:55:20 AM 33.1161 -92.2747 290° West 403 464 36,000  Level Fort Center
Tue 08:56:22 AM 33.1617 -92.4272 290° West 405 466 36,000  Level Fort Center
Tue 08:57:24 AM 33.2003 -92.5550 290° West 406 467 36,000  Level Fort Center
Tue 08:58:26 AM 33.2386 -92.6822 290° West 407 468 36,000  Level Fort Center
Tue 08:59:28 AM 33.2703 -92.8136 286° West 411 473 36,000  Level Fort Center
Tue 09:00:30 AM 33.2978 -92.9486 284° West 415 478 36,000  Level Fort Center
Tue 09:01:32 AM 33.3233 -93.0825 283° West 417 480 36,000  Level Fort Center
Tue 09:02:34 AM 33.3547 -93.2442 283° West 416 479 36,000  Level Fort Center
Tue 09:03:36 AM 33.3811 -93.3792 283° West 418 481 36,000  Level Fort Center
Tue 09:04:38 AM 33.4081 -93.5156 283° West 421 484 36,000  Level Fort Center
Tue 09:05:40 AM 33.4350 -93.6522 283° West 422 486 36,000  Level Fort Center
Tue 09:06:42 AM 33.4622 -93.7894 283° West 426 490 36,000  Level Fort Center
Tue 09:07:43 AM 33.4939 -93.9553 283° West 435 501 36,000  Level Fort Center
Tue 09:08:45 AM 33.5211 -94.0961 283° West 435 501 36,000  Level Fort Center
Tue 09:09:47 AM 33.5469 -94.2353 283° West 437 503 36,000  Level Fort Center
Tue 09:10:49 AM 33.5753 -94.3753 284° West 437 503 36,000  Level Fort Center
Tue 09:11:51 AM 33.6078 -94.5453 283° West 438 504 36,000  Level Fort Center
Tue 09:12:53 AM 33.6319 -94.6847 282° West 433 498 36,000  Level Fort Center
Tue 09:13:56 AM 33.6592 -94.8267 283° West 437 503 36,000  Level Fort Center
Tue 09:14:58 AM 33.6833 -94.9692 282° West 440 506 36,000  Level Fort Center
Tue 09:16:00 AM 33.7089 -95.1094 282° West 435 501 36,000  Level Fort Center
Tue 09:17:02 AM 33.7367 -95.2508 283° West 437 503 36,000  Level Fort Center
Tue 09:18:04 AM 33.7664 -95.4192 282° West 433 498 36,000  Level Fort Center
Tue 09:19:06 AM 33.7906 -95.5614 282° West 435 501 36,000  Level Fort Center
Tue 09:20:08 AM 33.8197 -95.7133 283° West 434 499 36,000  Level Fort Center
Tue 09:21:10 AM 33.8439 -95.8547 282° West 436 502 36,000  Level Fort Center
Tue 09:22:12 AM 33.8703 -95.9953 283° West 435 501 36,000  Level Fort Center
Tue 09:23:14 AM 33.8933 -96.1369 281° West 435 501 36,000  Level Fort Center
Tue 09:24:17 AM 33.9186 -96.2792 282° West 437 503 36,000  Level Fort Center
Tue 09:25:19 AM 33.9475 -96.4500 282° West 437 503 36,000  Level Fort Center
Tue 09:26:21 AM 33.9719 -96.5919 282° West 437 503 36,000  Level Fort Center
Tue 09:27:23 AM 33.9956 -96.7342 281° West 437 503 36,000  Level Fort Center
Tue 09:28:25 AM 34.0194 -96.8758 282° West 436 502 36,000  Level Fort Center
Tue 09:29:27 AM 34.0425 -97.0183 281° West 436 502 36,000  Level Fort Center
Tue 09:30:29 AM 34.0706 -97.1883 281° West 435 501 36,000  Level Fort Center
Tue 09:31:31 AM 34.0936 -97.3281 281° West 432 497 36,000  Level Fort Center
Tue 09:32:33 AM 34.1142 -97.4572 281° West 432 497 36,000  Level Fort Center
Tue 09:33:36 AM 34.1433 -97.6303 282° West 434 499 36,000  Level Fort Center
Tue 09:34:38 AM 34.1658 -97.7739 281° West 434 499 36,000  Level Fort Center
Tue 09:35:40 AM 34.1889 -97.9164 281° West 434 499 36,000  Level Fort Center
Tue 09:36:42 AM 34.2103 -98.0600 280° West 434 499 36,000  Level Fort Center
Tue 09:37:44 AM 34.2353 -98.2114 281° West 433 498 36,000  Level Fort Center
Tue 09:38:46 AM 34.2569 -98.3547 280° West 433 498 36,000  Level Fort Center
Tue 09:39:48 AM 34.2814 -98.5131 281° West 433 498 36,000  Level Fort Center
Tue 09:40:50 AM 34.3042 -98.6547 281° West 432 497 36,000  Level Fort Center
Tue 09:41:52 AM 34.3256 -98.7975 280° West 432 497 36,000  Level Fort Center
Tue 09:42:55 AM 34.3475 -98.9411 281° West 432 497 36,000  Level Fort Center
Tue 09:43:57 AM 34.3678 -99.0831 280° West 431 496 36,000  Level Fort Center
Tue 09:44:59 AM 34.3892 -99.2250 280° West 429 494 36,000  Level Fort Center
Tue 09:46:01 AM 34.4147 -99.3967 280° West 430 495 36,000  Level Fort Center
Tue 09:47:03 AM 34.4356 -99.5364 280° West 424 488 36,000  Level Fort Center
Tue 09:48:05 AM 34.4558 -99.6803 280° West 432 497 36,000  Level Fort Center
Tue 09:49:07 AM 34.4781 -99.8311 280° West 427 491 36,000  Level Fort Center
Tue 09:50:09 AM 34.4975 -99.9717 280° West 427 491 36,000  Level Fort Center
Tue 09:51:11 AM 34.5169 -100.1119 280° West 427 491 36,000  Level Fort Center
Tue 09:52:13 AM 34.5361 -100.2528 279° West 426 490 36,000  Level Fort Center
Tue 09:53:16 AM 34.5561 -100.3944 280° West 425 489 36,000  Level Fort Center
Tue 09:54:18 AM 34.5806 -100.5628 280° West 425 489 36,000  Level Fort Center
Tue 09:55:20 AM 34.5986 -100.7056 279° West 425 489 36,000  Level Fort Center
Tue 09:56:22 AM 34.6181 -100.8497 279° West 431 496 36,000  Level Fort Center
Tue 09:57:24 AM 34.6364 -100.9931 279° West 431 496 36,000  Level Fort Center
Tue 09:58:26 AM 34.6553 -101.1356 279° West 430 495 36,000  Level Fort Center
Tue 09:59:28 AM 34.6742 -101.2781 279° West 429 494 36,000  Level Fort Center
Tue 10:00:30 AM 34.6953 -101.4500 279° West 428 493 36,000  Level Fort Center
Tue 10:01:32 AM 34.7128 -101.5917 279° West 425 489 36,000  Level Fort Center
Tue 10:02:35 AM 34.7308 -101.7339 279° West 425 489 36,000  Level Fort Center
Tue 10:03:37 AM 34.7483 -101.8767 279° West 425 489 36,000  Level Fort Center
Tue 10:04:39 AM 34.7658 -102.0183 279° West 425 489 36,000  Level Fort Center
Tue 10:05:41 AM 34.7847 -102.1639 279° West 430 495 36,000  Level Fort Center
Tue 10:06:43 AM 34.8014 -102.3053 278° West 426 490 36,000  Level Fort Center
Tue 10:07:45 AM 34.8225 -102.4764 279° West 426 490 36,000  Level Fort Center
Tue 10:08:47 AM 34.8394 -102.6183 278° West 425 489 36,000  Level Fort Center
Tue 10:09:49 AM 34.8567 -102.7617 278° West 425 489 36,000  Level Fort Center
Tue 10:11:06 AM 34.8750 -102.9347 277° West 426 490 36,000  Level Albuquerque Center
Tue 10:12:08 AM 34.8919 -103.0783 278° West 426 490 36,000  Level Albuquerque Center
Tue 10:13:10 AM 34.9111 -103.2469 278° West 426 490 36,000 -244 Level Albuquerque Center
Tue 10:14:11 AM 34.9275 -103.3911 278° West 426 490 35,500 -732 Descending Albuquerque Center
Tue 10:15:13 AM 34.9431 -103.5344 278° West 426 490 34,500 -726 Descending Albuquerque Center
Tue 10:16:15 AM 34.9589 -103.6756 278° West 422 486 34,000 -244 Descending Albuquerque Center
Tue 10:17:16 AM 34.9739 -103.8158 277° West 416 479 34,000  Level Albuquerque Center
Tue 10:18:18 AM 34.9886 -103.9550 277° West 414 476 34,000  Level Albuquerque Center
Tue 10:19:20 AM 35.0031 -104.0956 277° West 413 475 34,000  Level Albuquerque Center
Tue 10:20:22 AM 35.0178 -104.2369 277° West 413 475 34,000  Level Albuquerque Center
Tue 10:21:23 AM 35.0319 -104.3794 277° West 413 475 34,000  Level Albuquerque Center
Tue 10:22:25 AM 35.0469 -104.5200 277° West 413 475 34,000  Level Albuquerque Center
Tue 10:23:27 AM 35.0619 -104.6608 277° West 413 475 34,000  Level Albuquerque Center
Tue 10:24:29 AM 35.0764 -104.8008 277° West 413 475 34,000  Level Albuquerque Center
Tue 10:25:31 AM 35.0928 -104.9636 277° West 413 475 34,000  Level Albuquerque Center
Tue 10:26:33 AM 35.1067 -105.1047 277° West 413 475 34,000  Level Albuquerque Center
Tue 10:27:34 AM 35.1203 -105.2450 277° West 413 475 34,000  Level Albuquerque Center
Tue 10:28:36 AM 35.1325 -105.3872 276° West 415 478 34,000  Level Albuquerque Center
Tue 10:29:38 AM 35.1467 -105.5283 277° West 416 479 34,000  Level Albuquerque Center
Tue 10:30:40 AM 35.1581 -105.6661 276° West 416 479 34,000  Level Albuquerque Center
Tue 10:31:42 AM 35.1717 -105.8075 277° West 416 479 34,000  Level Albuquerque Center
Tue 10:32:44 AM 35.1844 -105.9497 276° West 416 479 34,000  Level Albuquerque Center
Tue 10:33:46 AM 35.1964 -106.0947 276° West 419 482 34,000  Level Albuquerque Center
Tue 10:34:48 AM 35.2125 -106.2694 276° West 424 488 34,000  Level Albuquerque Center
Tue 10:35:50 AM 35.2247 -106.4150 276° West 425 489 34,000  Level Albuquerque Center
Tue 10:36:52 AM 35.2378 -106.5656 276° West 427 491 34,000  Level Albuquerque Center
Tue 10:37:54 AM 35.2500 -106.7097 276° West 428 493 34,000  Level Albuquerque Center
Tue 10:38:56 AM 35.2625 -106.8642 276° West 428 493 34,000  Level Albuquerque Center
Tue 10:39:58 AM 35.2750 -107.0089 276° West 429 494 34,000  Level Albuquerque Center
Tue 10:41:00 AM 35.2878 -107.1647 276° West 429 494 34,000  Level Albuquerque Center
Tue 10:42:02 AM 35.2992 -107.2992 276° West 429 494 34,000  Level Albuquerque Center
Tue 10:43:04 AM 35.3114 -107.4597 275° West 427 491 34,000  Level Albuquerque Center
Tue 10:44:06 AM 35.3203 -107.5994 274° West 428 493 34,000  Level Albuquerque Center
Tue 10:45:08 AM 35.3333 -107.7583 276° West 425 489 34,000  Level Albuquerque Center
Tue 10:46:10 AM 35.3433 -107.8950 275° West 424 488 34,000  Level Albuquerque Center
Tue 10:47:12 AM 35.3547 -108.0550 275° West 424 488 34,000  Level Albuquerque Center
Tue 10:48:14 AM 35.3650 -108.1919 275° West 423 487 34,000  Level Albuquerque Center
Tue 10:49:16 AM 35.3764 -108.3519 275° West 423 487 34,000  Level Albuquerque Center
Tue 10:50:18 AM 35.3856 -108.4897 275° West 423 487 34,000  Level Albuquerque Center
Tue 10:51:20 AM 35.3944 -108.6264 275° West 423 487 34,000  Level Albuquerque Center
Tue 10:52:22 AM 35.4053 -108.7869 275° West 422 486 34,000  Level Albuquerque Center
Tue 10:53:24 AM 35.4144 -108.9242 275° West 422 486 34,000  Level Albuquerque Center
Tue 10:54:26 AM 35.4250 -109.0844 275° West 422 486 34,000  Level Albuquerque Center
Tue 10:55:28 AM 35.4336 -109.2200 274° West 422 486 34,000  Level Albuquerque Center
Tue 10:56:30 AM 35.4442 -109.3797 275° West 420 483 34,000  Level Albuquerque Center
Tue 10:57:32 AM 35.4531 -109.5172 275° West 423 487 34,000  Level Albuquerque Center
Tue 10:58:34 AM 35.4614 -109.6758 274° West 418 481 34,000  Level Albuquerque Center
Tue 10:59:36 AM 35.4683 -109.8114 274° West 418 481 34,000  Level Albuquerque Center
Tue 11:00:39 AM 35.4767 -109.9700 274° West 417 480 34,000  Level Albuquerque Center
Tue 11:01:41 AM 35.4847 -110.1053 274° West 417 480 34,000  Level Albuquerque Center
Tue 11:02:43 AM 35.4900 -110.2408 273° West 417 480 34,000 -336 Level Albuquerque Center
Tue 11:03:46 AM 35.4975 -110.3997 273° West 417 480 33,300 -768 Descending Albuquerque Center
Tue 11:04:48 AM 35.5047 -110.5347 274° West 417 480 32,400 -629 Descending Albuquerque Center
Tue 11:05:50 AM 35.5136 -110.6939 274° West 417 480 32,000 -194 Descending Albuquerque Center
Tue 11:06:52 AM 35.5197 -110.8319 273° West 418 481 32,000  Level Albuquerque Center
Tue 11:07:54 AM 35.5286 -110.9908 274° West 419 482 32,000  Level Albuquerque Center
Tue 11:08:56 AM 35.5350 -111.1267 273° West 419 482 32,000  Level Albuquerque Center
Tue 11:09:58 AM 35.5428 -111.2839 274° West 417 480 32,000  Level Albuquerque Center
Tue 11:11:00 AM 35.5481 -111.4172 273° West 414 476 32,000  Level Albuquerque Center
Tue 11:12:02 AM 35.5556 -111.5706 273° West 419 482 32,000 -642 Level Albuquerque Center
Tue 11:14:07 AM 35.5669 -111.8433 273° West 405 466 30,000 -642 Descending Albuquerque Center
Tue 11:15:09 AM 35.5714 -111.9797 272° West 404 465 30,000  Level Albuquerque Center
Tue 11:16:11 AM 35.5775 -112.1447 273° West 404 465 30,000  Level Albuquerque Center
Tue 11:17:13 AM 35.5833 -112.2822 273° West 405 466 30,000  Level Albuquerque Center
Tue 11:18:19 AM 35.5894 -112.4219 273° West 406 467 30,000  Level Los Center
Tue 11:20:19 AM 35.5992 -112.6972 273° West 408 470 30,000  Level Albuquerque Center
Tue 11:21:21 AM 35.6050 -112.8611 273° West 408 470 30,000  Level Albuquerque Center
Tue 11:22:23 AM 35.6083 -112.9964 272° West 407 468 30,000  Level Albuquerque Center
Tue 11:23:25 AM 35.6125 -113.1311 272° West 404 465 30,000 -384 Level Albuquerque Center
Tue 11:24:28 AM 35.6169 -113.2650 272° West 402 463 29,200 -1,500 Descending Albuquerque Center
Tue 11:25:33 AM 35.6217 -113.4203 272° West 383 441 26,800 -2,079 Descending Los Center
Tue 11:26:35 AM 35.6253 -113.5458 272° West 375 432 24,800 -1,902 Descending Los Center
Tue 11:27:36 AM 35.6414 -113.6681 279° West 369 425 22,900 -2,098 Descending Los Center
Tue 11:28:38 AM 35.6631 -113.8131 280° West 367 422 20,500 -2,064 Descending Los Center
Tue 11:29:41 AM 35.6800 -113.9294 280° West 358 412 18,600 -1,872 Descending Los Center
Tue 11:30:43 AM 35.6961 -114.0439 280° West 350 403 16,600 -1,887 Descending Los Center
Tue 11:31:45 AM 35.7117 -114.1553 280° West 341 392 14,700 -1,935 Descending Los Center
Tue 11:32:16 AM 35.7197 -114.2244 278° West 334 384 13,600 -1,645 Descending Los Center
Tue 11:32:47 AM 35.7258 -114.2636 281° West 326 375 13,000 -1,674 Descending Los Center
Tue 11:32:59 AM 35.7317 -114.2975 282° West 323 372 12,400 -968 Descending Los Center
Tue 11:33:49 AM 35.7536 -114.3853 287° West 317 365 12,000 -696 Descending Los Center
Tue 11:34:51 AM 35.8258 -114.4603 320° Northwest 334 384 11,100 -968 Descending Los Center
Tue 11:35:53 AM 35.8975 -114.5372 319° Northwest 342 394 10,000 -1,113 Descending Los Center
Tue 11:36:55 AM 35.9611 -114.6069 282° West 313 360 8,800 -968 Descending Los Center
Tue 11:37:00 AM 35.9404 -114.6806 282° West  Level Estimated
Tue 11:37:57 AM 36.0233 -114.6739 319° Northwest 304 350 8,000  Level Los Center
Tue 11:38:09 AM 36.0414 -114.6953 316° Northwest 276 318 8,000  Level Los Center
Tue 11:38:59 AM 36.0697 -114.7347 312° West 268 308 8,000 -300 Level Los Center
Tue 11:39:09 AM 36.0719 -114.7650 275° West 220 253 7,700 -1,161 Descending Los Center
Tue 11:40:01 AM 36.0731 -114.8275 271° West 237 273 6,800 -1,075 Descending Los Center
Tue 11:40:16 AM 36.0722 -114.8447 267° West 215 247 6,500 -1,161 Descending Los Center
Tue 11:41:03 AM 36.0742 -114.8994 273° West 224 258 5,600 -1,180 Descending Los Center
Tue 11:41:17 AM 36.0731 -114.9164 265° West 209 241 5,300 -1,048 Descending Los Center
Tue 11:42:06 AM 36.0739 -114.9672 271° West 182 209 4,500 -984 Descending Los Center
Tue 11:42:18 AM 36.0744 -114.9825 273° West 172 198 4,300 -968 Descending Los Center
Tue 11:43:08 AM 36.0742 -115.0308 270° West 183 211 3,500 -984 Descending Los Center
Tue 11:43:19 AM 36.0733 -115.0467 266° West 184 212 3,300 -871 Descending Los Center
Tue 11:44:10 AM 36.0736 -115.0922 270° West 166 191 2,600 -743 Descending Los Center
Tue 11:45:12 AM 36.0722 -115.1378 268° West 158 182 1,900 -677 Descending Los Center
Tue 11:47:00 AM 36.0667 -115.1500 270° West  Level FlightAware

Login

Don't have an account? Register now (free) for customized features, flight alerts, and more!